Time;durP1;ratioP1;P1;durP2;ratioP2;P2;SDS_P1;SDS_P2;PMS_P1;PMS_P2;Temp;Humidity;BMP_temperature;BMP_pressure;BME280_temperature;BME280_humidity;BME280_pressure;Samples;Min_cycle;Max_cycle;Signal;HPM_P1;HPM_P2
2022/04/07 00:01:41;;;;;;;14.45;4.38;;;;;;;;;;5057662;28;20037;-77
2022/04/07 00:04:07;;;;;;;14.55;3.63;;;;;;;;;;5042113;28;20024;-77
2022/04/07 00:06:33;;;;;;;16.13;3.80;;;;;;;;;;5041657;28;20032;-77
2022/04/07 00:09:02;;;;;;;21.42;5.25;;;;;;;;;;5065282;28;20495;-76
2022/04/07 00:11:29;;;;;;;19.63;4.28;;;;;;;;;;5054077;28;20025;-76
2022/04/07 00:13:55;;;;;;;15.18;4.40;;;;;;;;;;5032660;28;20033;-76
2022/04/07 00:16:21;;;;;;;17.10;4.35;;;;;;;;;;5058510;28;20108;-75
2022/04/07 00:18:47;;;;;;;17.20;4.80;;;;;;;;;;5061503;28;20039;-75
2022/04/07 00:21:24;;;;;;;14.32;5.00;;;;;;;;;;5025022;28;20422;-78
2022/04/07 00:23:51;;;;;;;17.88;4.80;;;;;;;;;;5063498;28;20039;-77
2022/04/07 00:26:17;;;;;;;19.42;5.65;;;;;;;;;;5057632;28;20081;-76
2022/04/07 00:28:43;;;;;;;22.55;6.18;;;;;;;;;;5039108;28;20025;-76
2022/04/07 00:31:11;;;;;;;19.75;5.72;;;;;;;;;;5055261;28;20038;-78
2022/04/07 00:33:37;;;;;;;23.63;6.28;;;;;;;;;;5040944;28;20031;-76
2022/04/07 00:36:04;;;;;;;19.98;5.15;;;;;;;;;;5037191;28;20037;-76
2022/04/07 00:38:30;;;;;;;18.27;4.80;;;;;;;;;;5032094;28;20520;-75
2022/04/07 00:40:56;;;;;;;18.58;4.45;;;;;;;;;;5047833;28;20113;-76
2022/04/07 00:43:29;;;;;;;22.77;4.93;;;;;;;;;;5040544;28;20456;-75
2022/04/07 00:45:55;;;;;;;21.75;4.85;;;;;;;;;;5023196;28;20040;-76
2022/04/07 00:48:21;;;;;;;19.52;4.57;;;;;;;;;;5041892;28;20131;-77
2022/04/07 00:50:48;;;;;;;26.33;5.38;;;;;;;;;;5062865;28;20037;-75
2022/04/07 00:53:14;;;;;;;18.77;3.80;;;;;;;;;;5053100;28;20128;-75
2022/04/07 00:55:41;;;;;;;17.73;4.38;;;;;;;;;;5045009;28;20029;-76
2022/04/07 00:58:07;;;;;;;22.80;4.30;;;;;;;;;;5053438;28;20025;-76
2022/04/07 01:00:34;;;;;;;23.90;4.80;;;;;;;;;;5030912;28;20037;-76
2022/04/07 01:03:00;;;;;;;19.35;4.57;;;;;;;;;;5037614;28;20025;-76
2022/04/07 01:05:26;;;;;;;17.15;3.70;;;;;;;;;;5058256;28;20028;-76
2022/04/07 01:07:52;;;;;;;14.45;3.15;;;;;;;;;;5036154;28;20029;-77
2022/04/07 01:10:19;;;;;;;18.45;3.65;;;;;;;;;;5054949;28;20039;-76
2022/04/07 01:12:46;;;;;;;23.52;3.92;;;;;;;;;;5054190;28;20036;-75
2022/04/07 01:15:12;;;;;;;16.30;4.47;;;;;;;;;;5058178;28;20036;-76
2022/04/07 01:17:38;;;;;;;17.70;3.60;;;;;;;;;;5061873;28;20380;-76
2022/04/07 01:20:05;;;;;;;23.38;4.68;;;;;;;;;;5040578;28;20029;-77
2022/04/07 01:22:31;;;;;;;23.00;4.40;;;;;;;;;;5040383;28;20029;-75
2022/04/07 01:24:57;;;;;;;27.17;4.80;;;;;;;;;;5045596;28;20120;-76
2022/04/07 01:27:24;;;;;;;22.42;4.70;;;;;;;;;;5055700;28;20048;-76
2022/04/07 01:29:54;;;;;;;27.25;5.28;;;;;;;;;;5041194;28;20142;-75
2022/04/07 01:32:22;;;;;;;22.33;4.88;;;;;;;;;;5039123;28;20048;-76
2022/04/07 01:34:49;;;;;;;22.15;4.43;;;;;;;;;;5042379;28;20116;-77
2022/04/07 01:37:17;;;;;;;30.77;5.93;;;;;;;;;;5057077;28;20021;-76
2022/04/07 01:39:43;;;;;;;21.27;5.28;;;;;;;;;;5041283;28;20079;-76
2022/04/07 01:42:10;;;;;;;21.83;4.63;;;;;;;;;;5058025;28;20140;-75
2022/04/07 01:44:37;;;;;;;20.38;4.18;;;;;;;;;;5063673;28;20028;-76
2022/04/07 01:47:04;;;;;;;21.95;4.53;;;;;;;;;;5066770;28;20334;-76
2022/04/07 01:49:30;;;;;;;19.98;5.53;;;;;;;;;;5064349;28;20781;-77
2022/04/07 01:51:59;;;;;;;26.63;5.45;;;;;;;;;;5065523;28;20032;-77
2022/04/07 01:54:25;;;;;;;19.52;5.40;;;;;;;;;;5057123;28;20043;-76
2022/04/07 01:56:51;;;;;;;24.90;6.07;;;;;;;;;;5057723;28;20028;-75
2022/04/07 01:59:17;;;;;;;18.38;4.68;;;;;;;;;;5039252;28;20394;-76
2022/04/07 02:01:43;;;;;;;28.05;6.10;;;;;;;;;;5040510;28;20493;-75
2022/04/07 02:04:09;;;;;;;27.77;5.80;;;;;;;;;;5062571;28;20050;-75
2022/04/07 02:06:35;;;;;;;29.40;6.85;;;;;;;;;;5054796;28;20028;-76
2022/04/07 02:09:02;;;;;;;27.23;6.22;;;;;;;;;;5061336;28;20057;-75
2022/04/07 02:11:28;;;;;;;28.30;5.75;;;;;;;;;;5040043;28;20115;-78
2022/04/07 02:13:54;;;;;;;28.33;5.38;;;;;;;;;;5070295;28;20398;-77
2022/04/07 02:16:22;;;;;;;33.58;7.70;;;;;;;;;;5056488;28;20028;-78
2022/04/07 02:18:48;;;;;;;31.80;5.30;;;;;;;;;;5050455;28;20052;-76
2022/04/07 02:21:14;;;;;;;36.30;6.00;;;;;;;;;;5042010;28;20033;-76
2022/04/07 02:23:43;;;;;;;36.65;6.25;;;;;;;;;;5049430;28;20565;-76
2022/04/07 02:26:10;;;;;;;29.55;5.63;;;;;;;;;;5047939;28;20024;-76
2022/04/07 02:28:36;;;;;;;25.60;5.68;;;;;;;;;;5060236;28;20040;-78
2022/04/07 02:31:02;;;;;;;22.98;5.78;;;;;;;;;;5058867;28;20025;-76
2022/04/07 02:33:28;;;;;;;27.75;5.35;;;;;;;;;;5064270;28;20033;-77
2022/04/07 02:35:55;;;;;;;32.03;6.07;;;;;;;;;;5058616;28;20171;-76
2022/04/07 02:38:21;;;;;;;27.48;6.07;;;;;;;;;;5058282;28;20420;-75
2022/04/07 02:40:47;;;;;;;31.00;5.80;;;;;;;;;;5037644;28;20040;-75
2022/04/07 02:43:13;;;;;;;26.10;5.32;;;;;;;;;;5059330;28;20055;-76
2022/04/07 02:45:39;;;;;;;37.80;7.07;;;;;;;;;;5057820;28;20083;-76
2022/04/07 02:48:05;;;;;;;26.48;4.95;;;;;;;;;;5059001;28;20565;-77
2022/04/07 02:50:31;;;;;;;23.95;4.60;;;;;;;;;;5063348;28;20040;-76
2022/04/07 02:52:57;;;;;;;36.55;5.10;;;;;;;;;;5066169;28;20025;-76
2022/04/07 02:55:24;;;;;;;22.52;4.47;;;;;;;;;;5048886;28;20058;-77
2022/04/07 02:57:50;;;;;;;26.92;5.40;;;;;;;;;;5040619;28;20074;-76
2022/04/07 03:00:16;;;;;;;26.40;4.80;;;;;;;;;;5058630;28;20041;-76
2022/04/07 03:02:43;;;;;;;23.08;5.22;;;;;;;;;;5067142;28;20029;-76
2022/04/07 03:05:09;;;;;;;35.92;5.03;;;;;;;;;;5046553;28;20027;-74
2022/04/07 03:07:36;;;;;;;28.05;5.57;;;;;;;;;;5046897;28;20114;-76
2022/04/07 03:10:02;;;;;;;35.00;4.70;;;;;;;;;;5064182;28;20009;-77
2022/04/07 03:12:28;;;;;;;39.38;5.95;;;;;;;;;;5059090;28;20121;-76
2022/04/07 03:14:54;;;;;;;34.05;4.68;;;;;;;;;;5046097;28;20068;-77
2022/04/07 03:17:20;;;;;;;33.08;5.15;;;;;;;;;;5062503;28;20486;-76
2022/04/07 03:19:46;;;;;;;33.10;6.32;;;;;;;;;;5043458;28;20260;-76
2022/04/07 03:22:12;;;;;;;39.15;6.57;;;;;;;;;;5043303;28;20059;-76
2022/04/07 03:24:39;;;;;;;36.15;7.65;;;;;;;;;;5046157;28;20067;-78
2022/04/07 03:27:08;;;;;;;43.42;6.00;;;;;;;;;;5057151;28;20048;-77
2022/04/07 03:29:35;;;;;;;34.53;5.20;;;;;;;;;;5059024;28;20032;-77
2022/04/07 03:32:01;;;;;;;39.30;6.93;;;;;;;;;;5061255;28;20028;-76
2022/04/07 03:34:27;;;;;;;37.83;6.03;;;;;;;;;;5064302;28;20148;-77
2022/04/07 03:36:53;;;;;;;41.50;7.30;;;;;;;;;;5060358;28;20117;-77
2022/04/07 03:39:19;;;;;;;28.85;5.90;;;;;;;;;;5066131;28;20036;-77
2022/04/07 03:41:45;;;;;;;36.80;4.82;;;;;;;;;;5057867;28;20064;-76
2022/04/07 03:44:11;;;;;;;37.78;6.90;;;;;;;;;;5058724;28;20043;-76
2022/04/07 03:46:38;;;;;;;36.80;5.60;;;;;;;;;;5058653;28;20028;-75
2022/04/07 03:49:04;;;;;;;33.05;4.53;;;;;;;;;;5061638;28;20092;-74
2022/04/07 03:51:30;;;;;;;41.60;5.65;;;;;;;;;;5058397;28;20482;-76
2022/04/07 03:53:56;;;;;;;32.30;5.13;;;;;;;;;;5043750;28;20071;-77
2022/04/07 03:56:22;;;;;;;30.00;4.28;;;;;;;;;;5034703;28;20033;-77
2022/04/07 03:58:48;;;;;;;33.50;5.22;;;;;;;;;;5058771;28;20032;-78
2022/04/07 04:01:14;;;;;;;28.75;4.55;;;;;;;;;;5052982;28;20401;-77
2022/04/07 04:03:40;;;;;;;30.50;5.55;;;;;;;;;;5035763;28;20040;-76
2022/04/07 04:06:06;;;;;;;26.50;5.55;;;;;;;;;;5058251;28;20105;-73
2022/04/07 04:08:32;;;;;;;35.97;5.45;;;;;;;;;;5049159;28;20532;-77
2022/04/07 04:10:58;;;;;;;34.55;6.38;;;;;;;;;;5066636;28;20029;-78
2022/04/07 04:13:26;;;;;;;35.13;5.88;;;;;;;;;;5061173;28;20032;-77
2022/04/07 04:15:52;;;;;;;30.63;5.45;;;;;;;;;;5044061;28;20122;-77
2022/04/07 04:18:18;;;;;;;29.02;6.25;;;;;;;;;;5058874;28;20044;-75
2022/04/07 04:20:44;;;;;;;33.45;6.97;;;;;;;;;;5066299;28;20094;-76
2022/04/07 04:23:10;;;;;;;26.77;4.72;;;;;;;;;;5033952;28;20483;-77
2022/04/07 04:25:36;;;;;;;32.42;6.30;;;;;;;;;;5058034;28;20037;-76
2022/04/07 04:28:02;;;;;;;26.27;5.68;;;;;;;;;;5056955;28;20119;-76
2022/04/07 04:30:30;;;;;;;33.30;5.10;;;;;;;;;;5047061;28;20108;-76
2022/04/07 04:32:56;;;;;;;29.10;5.25;;;;;;;;;;5038657;28;20025;-77
2022/04/07 04:35:22;;;;;;;27.88;4.93;;;;;;;;;;5036225;28;20438;-79
2022/04/07 04:37:48;;;;;;;22.52;3.92;;;;;;;;;;5058080;28;20103;-77
2022/04/07 04:40:14;;;;;;;26.63;4.70;;;;;;;;;;5061190;28;20560;-77
2022/04/07 04:42:43;;;;;;;23.17;3.30;;;;;;;;;;5059896;28;20080;-75
2022/04/07 04:45:09;;;;;;;17.80;3.83;;;;;;;;;;5063293;28;20433;-77
2022/04/07 04:47:35;;;;;;;20.08;3.08;;;;;;;;;;5060738;28;20104;-78
2022/04/07 04:50:04;;;;;;;23.58;3.97;;;;;;;;;;5057818;28;20040;-77
2022/04/07 04:52:30;;;;;;;25.45;4.10;;;;;;;;;;5055484;28;20048;-76
2022/04/07 04:54:56;;;;;;;26.70;4.75;;;;;;;;;;5039479;28;20550;-76
2022/04/07 04:57:22;;;;;;;16.75;4.43;;;;;;;;;;5057009;28;20039;-78
2022/04/07 04:59:49;;;;;;;19.42;4.85;;;;;;;;;;5055837;28;20577;-77
2022/04/07 05:02:15;;;;;;;21.75;4.32;;;;;;;;;;5054485;28;20072;-75
2022/04/07 05:04:42;;;;;;;20.33;3.72;;;;;;;;;;5037994;28;20033;-77
2022/04/07 05:07:08;;;;;;;12.95;3.25;;;;;;;;;;5059484;28;20119;-78
2022/04/07 05:09:34;;;;;;;18.38;4.53;;;;;;;;;;5060702;28;20052;-78
2022/04/07 05:12:01;;;;;;;20.33;4.28;;;;;;;;;;5045293;28;20036;-75
2022/04/07 05:14:27;;;;;;;19.90;4.75;;;;;;;;;;5060193;28;20037;-77
2022/04/07 05:16:53;;;;;;;23.00;4.80;;;;;;;;;;5041987;28;20051;-78
2022/04/07 05:19:19;;;;;;;15.50;4.50;;;;;;;;;;5048640;28;20024;-77
2022/04/07 05:21:49;;;;;;;14.50;4.53;;;;;;;;;;5056329;28;20119;-75
2022/04/07 05:24:17;;;;;;;18.42;5.38;;;;;;;;;;5040160;28;20389;-76
2022/04/07 05:26:43;;;;;;;16.85;4.80;;;;;;;;;;5039547;28;20024;-78
2022/04/07 05:29:11;;;;;;;18.17;5.57;;;;;;;;;;5040710;28;20108;-78
2022/04/07 05:31:37;;;;;;;14.73;5.22;;;;;;;;;;5041364;28;20059;-76
2022/04/07 05:34:04;;;;;;;21.95;5.53;;;;;;;;;;5067137;28;20396;-77
2022/04/07 05:36:29;;;;;;;15.23;4.63;;;;;;;;;;5058936;28;20033;-78
2022/04/07 05:38:56;;;;;;;16.65;5.50;;;;;;;;;;5039925;28;20439;-75
2022/04/07 05:41:22;;;;;;;25.15;5.47;;;;;;;;;;5034699;28;20155;-76
2022/04/07 05:43:48;;;;;;;22.27;6.13;;;;;;;;;;5043994;28;20045;-77
2022/04/07 05:46:14;;;;;;;6.70;1.42;;;;;;;;;;5061109;28;20044;-77
2022/04/07 05:48:40;;;;;;;11.55;1.40;;;;;;;;;;5044272;28;20041;-76
2022/04/07 05:51:06;;;;;;;9.45;1.20;;;;;;;;;;5043057;28;20071;-76
2022/04/07 05:53:32;;;;;;;7.35;1.35;;;;;;;;;;5063683;28;20121;-79
2022/04/07 05:55:58;;;;;;;6.82;1.33;;;;;;;;;;5045481;28;20052;-78
2022/04/07 05:58:24;;;;;;;14.57;1.88;;;;;;;;;;5032103;28;20380;-77
2022/04/07 06:00:51;;;;;;;7.50;1.40;;;;;;;;;;5050299;28;20083;-77
2022/04/07 06:03:17;;;;;;;7.32;1.70;;;;;;;;;;5061265;28;20096;-76
2022/04/07 06:05:43;;;;;;;8.32;1.60;;;;;;;;;;5044425;28;20032;-76
2022/04/07 06:08:09;;;;;;;16.13;1.60;;;;;;;;;;5048920;28;20029;-79
2022/04/07 06:10:36;;;;;;;16.20;1.60;;;;;;;;;;5048961;28;20098;-76
2022/04/07 06:13:02;;;;;;;12.55;2.30;;;;;;;;;;5051020;28;20033;-79
2022/04/07 06:15:29;;;;;;;10.43;1.80;;;;;;;;;;5068793;28;20032;-76
2022/04/07 06:17:55;;;;;;;8.48;2.10;;;;;;;;;;5044493;28;20210;-76
2022/04/07 06:20:21;;;;;;;12.23;2.67;;;;;;;;;;5042242;28;20419;-76
2022/04/07 06:22:48;;;;;;;15.52;2.08;;;;;;;;;;5066083;28;20020;-78
2022/04/07 06:25:14;;;;;;;18.05;2.38;;;;;;;;;;5062026;28;20016;-76
2022/04/07 06:27:41;;;;;;;17.02;2.08;;;;;;;;;;5065326;28;20029;-77
2022/04/07 06:30:09;;;;;;;19.67;2.35;;;;;;;;;;5057341;28;20422;-77
2022/04/07 06:32:36;;;;;;;20.30;2.92;;;;;;;;;;5043027;28;20116;-78
2022/04/07 06:35:03;;;;;;;19.15;2.78;;;;;;;;;;5058312;28;20025;-78
2022/04/07 06:37:29;;;;;;;14.63;2.30;;;;;;;;;;5027141;28;20036;-76
2022/04/07 06:40:02;;;;;;;18.63;2.53;;;;;;;;;;5035142;28;20541;-78
2022/04/07 06:42:28;;;;;;;17.98;2.38;;;;;;;;;;5041077;28;20048;-77
2022/04/07 06:44:55;;;;;;;19.10;2.45;;;;;;;;;;5074208;28;20369;-76
2022/04/07 06:47:24;;;;;;;18.67;2.40;;;;;;;;;;5069182;28;20036;-77
2022/04/07 06:49:51;;;;;;;16.33;2.33;;;;;;;;;;5045782;28;20028;-77
2022/04/07 06:52:17;;;;;;;12.07;1.65;;;;;;;;;;5071958;28;20033;-77
2022/04/07 06:54:43;;;;;;;18.08;2.42;;;;;;;;;;5060445;28;20029;-77
2022/04/07 06:57:09;;;;;;;21.33;2.97;;;;;;;;;;5042618;28;20039;-76
2022/04/07 06:59:35;;;;;;;12.02;2.13;;;;;;;;;;5070620;28;20041;-76
2022/04/07 07:02:01;;;;;;;9.73;1.52;;;;;;;;;;5066018;28;20056;-76
2022/04/07 07:04:27;;;;;;;11.63;1.63;;;;;;;;;;5057490;28;20132;-76
2022/04/07 07:06:53;;;;;;;10.02;2.28;;;;;;;;;;5067042;28;20045;-77
2022/04/07 07:09:19;;;;;;;8.60;1.80;;;;;;;;;;5061605;28;20021;-76
2022/04/07 07:11:45;;;;;;;11.20;1.70;;;;;;;;;;5039793;28;20466;-77
2022/04/07 07:14:11;;;;;;;10.68;1.50;;;;;;;;;;5048637;28;20231;-78
2022/04/07 07:16:37;;;;;;;15.13;2.10;;;;;;;;;;5077396;28;20132;-77
2022/04/07 07:19:03;;;;;;;12.23;2.42;;;;;;;;;;5075019;28;20646;-76
2022/04/07 07:21:29;;;;;;;19.48;3.40;;;;;;;;;;5060200;28;20156;-76
2022/04/07 07:23:55;;;;;;;15.05;2.03;;;;;;;;;;5031787;28;20180;-76
2022/04/07 07:26:21;;;;;;;16.55;1.90;;;;;;;;;;5059416;28;20029;-76
2022/04/07 07:28:47;;;;;;;13.18;1.80;;;;;;;;;;5071395;28;20036;-76
2022/04/07 07:31:13;;;;;;;13.05;2.35;;;;;;;;;;5066430;28;20039;-76
2022/04/07 07:33:39;;;;;;;11.02;3.05;;;;;;;;;;5074215;28;20044;-77
2022/04/07 07:36:05;;;;;;;20.52;2.50;;;;;;;;;;5063452;28;20127;-76
2022/04/07 07:38:31;;;;;;;10.88;1.55;;;;;;;;;;5049370;28;20075;-77
2022/04/07 07:40:57;;;;;;;16.10;3.90;;;;;;;;;;5036830;28;20052;-76
2022/04/07 07:43:23;;;;;;;15.48;2.00;;;;;;;;;;5044945;28;20067;-76
2022/04/07 07:45:50;;;;;;;13.85;2.10;;;;;;;;;;5052358;28;20092;-77
2022/04/07 07:48:18;;;;;;;6.70;2.05;;;;;;;;;;5031885;28;20047;-76
2022/04/07 07:50:45;;;;;;;14.77;1.77;;;;;;;;;;5016046;28;20060;-75
2022/04/07 07:53:11;;;;;;;6.10;1.60;;;;;;;;;;5030341;28;20041;-76
2022/04/07 07:55:38;;;;;;;14.38;2.08;;;;;;;;;;5014644;28;20033;-76
2022/04/07 07:58:04;;;;;;;12.40;1.77;;;;;;;;;;5039227;28;20040;-76
2022/04/07 08:00:30;;;;;;;12.75;1.85;;;;;;;;;;5016691;28;20026;-75
2022/04/07 08:02:56;;;;;;;7.65;1.63;;;;;;;;;;5024682;28;20092;-76
2022/04/07 08:05:22;;;;;;;8.75;1.45;;;;;;;;;;5033137;28;20062;-77
2022/04/07 08:07:48;;;;;;;10.30;1.48;;;;;;;;;;5028768;28;20033;-74
2022/04/07 08:10:15;;;;;;;11.07;2.33;;;;;;;;;;5068788;28;20096;-76
2022/04/07 08:12:41;;;;;;;10.98;1.90;;;;;;;;;;5056005;28;20017;-77
2022/04/07 08:15:07;;;;;;;11.73;2.00;;;;;;;;;;5051819;28;20318;-76
2022/04/07 08:17:34;;;;;;;7.05;1.65;;;;;;;;;;5035454;28;20072;-77
2022/04/07 08:20:02;;;;;;;9.25;1.20;;;;;;;;;;5033431;28;20466;-76
2022/04/07 08:22:28;;;;;;;3.90;1.13;;;;;;;;;;5034707;28;20048;-76
2022/04/07 08:24:56;;;;;;;8.10;1.65;;;;;;;;;;5017109;28;20076;-75
2022/04/07 08:27:23;;;;;;;5.15;1.00;;;;;;;;;;5032443;28;20112;-76
2022/04/07 08:29:50;;;;;;;4.35;1.23;;;;;;;;;;5046562;28;20075;-77
2022/04/07 08:32:16;;;;;;;9.07;1.88;;;;;;;;;;5017441;28;20033;-76
2022/04/07 08:34:42;;;;;;;8.00;1.48;;;;;;;;;;5011576;28;20522;-74
2022/04/07 08:37:08;;;;;;;10.63;2.30;;;;;;;;;;5044847;28;20204;-75
2022/04/07 08:39:34;;;;;;;10.82;1.65;;;;;;;;;;5047732;28;20511;-76
2022/04/07 08:42:01;;;;;;;5.18;1.55;;;;;;;;;;5043176;28;20067;-76
2022/04/07 08:44:31;;;;;;;13.60;1.60;;;;;;;;;;5041520;28;20041;-76
2022/04/07 08:46:58;;;;;;;9.23;1.70;;;;;;;;;;5038546;28;20052;-76
2022/04/07 08:49:25;;;;;;;18.23;2.03;;;;;;;;;;5044739;28;20399;-75
2022/04/07 08:51:52;;;;;;;12.50;1.75;;;;;;;;;;5052304;28;20079;-75
2022/04/07 08:54:19;;;;;;;14.65;2.30;;;;;;;;;;5060421;28;20033;-75
2022/04/07 08:56:45;;;;;;;13.88;2.10;;;;;;;;;;5055799;28;20416;-77
2022/04/07 08:59:11;;;;;;;12.13;1.75;;;;;;;;;;5060680;28;20037;-76
2022/04/07 09:01:37;;;;;;;9.18;1.92;;;;;;;;;;5052510;28;20033;-76
2022/04/07 09:04:04;;;;;;;16.88;2.05;;;;;;;;;;5063962;28;20020;-76
2022/04/07 09:06:33;;;;;;;13.75;1.65;;;;;;;;;;5054289;28;20113;-76
2022/04/07 09:09:10;;;;;;;8.77;1.80;;;;;;;;;;5042055;28;20054;-76
2022/04/07 09:11:36;;;;;;;11.82;2.03;;;;;;;;;;5058081;28;20020;-75
2022/04/07 09:14:02;;;;;;;7.35;1.60;;;;;;;;;;5032646;28;20491;-76
2022/04/07 09:16:28;;;;;;;11.50;2.75;;;;;;;;;;5056316;28;20082;-75
2022/04/07 09:18:54;;;;;;;16.42;2.58;;;;;;;;;;5052997;28;20102;-76
2022/04/07 09:21:27;;;;;;;13.57;2.55;;;;;;;;;;5070794;28;20568;-76
2022/04/07 09:23:57;;;;;;;12.98;1.83;;;;;;;;;;5049651;28;20021;-74
2022/04/07 09:26:23;;;;;;;8.35;1.58;;;;;;;;;;5053364;28;20118;-76
2022/04/07 09:28:50;;;;;;;17.65;3.35;;;;;;;;;;5058155;28;20478;-76
2022/04/07 09:31:17;;;;;;;11.85;1.70;;;;;;;;;;5027927;28;20239;-76
2022/04/07 09:33:43;;;;;;;13.35;2.90;;;;;;;;;;5059508;28;20508;-78
2022/04/07 09:36:10;;;;;;;11.55;1.98;;;;;;;;;;5053352;28;20041;-76
2022/04/07 09:38:37;;;;;;;14.90;2.40;;;;;;;;;;5054671;28;20063;-75
2022/04/07 09:41:12;;;;;;;12.38;2.00;;;;;;;;;;5062832;28;20075;-75
2022/04/07 09:43:46;;;;;;;8.45;1.92;;;;;;;;;;5042762;28;20118;-76
2022/04/07 09:46:13;;;;;;;7.20;1.75;;;;;;;;;;5054779;28;20048;-76
2022/04/07 09:48:39;;;;;;;16.60;2.70;;;;;;;;;;5051338;28;20029;-76
2022/04/07 09:51:06;;;;;;;17.48;2.35;;;;;;;;;;5058876;28;20033;-77
2022/04/07 09:53:37;;;;;;;13.35;1.90;;;;;;;;;;5037901;28;20098;-76
2022/04/07 09:56:03;;;;;;;13.85;2.70;;;;;;;;;;5068885;28;20043;-77
2022/04/07 09:58:29;;;;;;;13.32;2.10;;;;;;;;;;5071392;28;20077;-76
2022/04/07 10:00:56;;;;;;;8.15;2.20;;;;;;;;;;5045617;28;20032;-76
2022/04/07 10:03:22;;;;;;;13.05;2.38;;;;;;;;;;5057066;28;20112;-75
2022/04/07 10:05:49;;;;;;;15.57;2.15;;;;;;;;;;5043217;28;20021;-75
2022/04/07 10:08:16;;;;;;;11.38;1.92;;;;;;;;;;5066412;28;20489;-76
2022/04/07 10:10:43;;;;;;;14.90;2.35;;;;;;;;;;5052442;28;20044;-75
2022/04/07 10:13:10;;;;;;;11.52;2.20;;;;;;;;;;5058669;28;20029;-75
2022/04/07 10:15:37;;;;;;;14.70;2.80;;;;;;;;;;5055254;28;20043;-77
2022/04/07 10:18:04;;;;;;;15.00;2.78;;;;;;;;;;5071111;28;20035;-78
2022/04/07 10:20:33;;;;;;;13.88;2.83;;;;;;;;;;5060770;28;20025;-75
2022/04/07 10:23:11;;;;;;;14.57;2.40;;;;;;;;;;5060228;28;20048;-74
2022/04/07 10:25:39;;;;;;;19.75;2.85;;;;;;;;;;5065606;28;20127;-75
2022/04/07 10:28:05;;;;;;;41.28;3.40;;;;;;;;;;5068561;28;20028;-77
2022/04/07 10:30:34;;;;;;;27.50;3.58;;;;;;;;;;5073011;28;20025;-75
2022/04/07 10:33:00;;;;;;;14.48;2.60;;;;;;;;;;5064103;28;20155;-75
2022/04/07 10:35:30;;;;;;;17.52;3.05;;;;;;;;;;5068336;28;20086;-76
2022/04/07 10:37:56;;;;;;;15.25;2.70;;;;;;;;;;5074270;28;20112;-78
2022/04/07 10:40:39;;;;;;;16.88;2.67;;;;;;;;;;5068924;28;20055;-76
2022/04/07 10:43:11;;;;;;;21.25;2.83;;;;;;;;;;5044412;28;20076;-76
2022/04/07 10:45:41;;;;;;;12.13;2.65;;;;;;;;;;5057580;28;20418;-76
2022/04/07 10:48:23;;;;;;;17.95;3.63;;;;;;;;;;5038584;28;20029;-75
2022/04/07 10:50:52;;;;;;;20.13;3.03;;;;;;;;;;5043620;28;20024;-77
2022/04/07 10:53:20;;;;;;;18.77;3.10;;;;;;;;;;5064178;28;20088;-76
2022/04/07 10:55:59;;;;;;;20.33;2.90;;;;;;;;;;5061582;28;20493;-76
2022/04/07 10:58:42;;;;;;;17.48;3.10;;;;;;;;;;5058207;28;20401;-76
2022/04/07 11:01:13;;;;;;;20.70;4.03;;;;;;;;;;5056390;28;20037;-77
2022/04/07 11:03:41;;;;;;;19.35;3.80;;;;;;;;;;5045039;28;20174;-74
2022/04/07 11:06:07;;;;;;;22.25;3.95;;;;;;;;;;5077907;28;20157;-76
2022/04/07 11:08:34;;;;;;;23.40;3.88;;;;;;;;;;5039577;28;20037;-76
2022/04/07 11:11:00;;;;;;;18.35;3.47;;;;;;;;;;5036483;28;20051;-76
2022/04/07 11:13:43;;;;;;;21.15;3.65;;;;;;;;;;5055275;28;20098;-75
2022/04/07 11:16:14;;;;;;;16.98;3.17;;;;;;;;;;5061123;28;20071;-75
2022/04/07 11:18:47;;;;;;;25.25;3.75;;;;;;;;;;5057919;28;20060;-76
2022/04/07 11:21:14;;;;;;;22.52;3.63;;;;;;;;;;5043049;28;20389;-75
2022/04/07 11:23:41;;;;;;;19.40;3.13;;;;;;;;;;5058134;28;20024;-76
2022/04/07 11:26:11;;;;;;;21.38;3.33;;;;;;;;;;5043585;28;20053;-76
2022/04/07 11:28:37;;;;;;;26.40;3.30;;;;;;;;;;5054170;28;20029;-75
2022/04/07 11:31:04;;;;;;;19.15;3.92;;;;;;;;;;5059211;28;20032;-75
2022/04/07 11:33:36;;;;;;;18.75;3.63;;;;;;;;;;5064610;28;20131;-76
2022/04/07 11:36:02;;;;;;;22.70;3.58;;;;;;;;;;5064817;28;20028;-77
2022/04/07 11:38:34;;;;;;;17.48;2.67;;;;;;;;;;5043081;28;20426;-76
2022/04/07 11:41:01;;;;;;;18.10;3.10;;;;;;;;;;5060495;28;20056;-76
2022/04/07 11:43:27;;;;;;;20.83;3.30;;;;;;;;;;5059224;28;20090;-76
2022/04/07 11:45:55;;;;;;;21.15;3.78;;;;;;;;;;5055239;28;20031;-77
2022/04/07 11:48:22;;;;;;;16.83;2.40;;;;;;;;;;5071143;28;20047;-77
2022/04/07 11:50:49;;;;;;;19.83;3.10;;;;;;;;;;5058151;28;20110;-75
2022/04/07 11:53:16;;;;;;;12.43;2.63;;;;;;;;;;5040415;28;20029;-76
2022/04/07 11:55:42;;;;;;;13.43;3.03;;;;;;;;;;5067986;28;20044;-76
2022/04/07 11:58:10;;;;;;;16.92;3.15;;;;;;;;;;5039616;28;20024;-78
2022/04/07 12:00:36;;;;;;;17.13;2.65;;;;;;;;;;5045169;28;20469;-77
2022/04/07 12:03:03;;;;;;;18.23;2.65;;;;;;;;;;5072266;28;20758;-77
2022/04/07 12:05:30;;;;;;;16.55;3.75;;;;;;;;;;5044519;28;20040;-76
2022/04/07 12:07:57;;;;;;;16.83;3.15;;;;;;;;;;5055505;28;20037;-77
2022/04/07 12:10:24;;;;;;;18.67;3.30;;;;;;;;;;5065083;28;20031;-76
2022/04/07 12:12:50;;;;;;;11.82;2.70;;;;;;;;;;5056111;28;20040;-78
2022/04/07 12:15:17;;;;;;;18.15;3.78;;;;;;;;;;5060938;28;20029;-77
2022/04/07 12:17:58;;;;;;;22.08;2.75;;;;;;;;;;5064456;28;20123;-78
2022/04/07 12:20:24;;;;;;;17.95;2.80;;;;;;;;;;5059019;28;20028;-75
2022/04/07 12:23:03;;;;;;;17.20;2.88;;;;;;;;;;5059289;28;20044;-77
2022/04/07 12:25:29;;;;;;;11.57;2.55;;;;;;;;;;5050076;28;20036;-77
2022/04/07 12:28:06;;;;;;;16.45;3.53;;;;;;;;;;5057121;28;20009;-78
2022/04/07 12:30:42;;;;;;;19.85;3.92;;;;;;;;;;5061547;28;20036;-77
2022/04/07 12:33:08;;;;;;;20.50;3.28;;;;;;;;;;5064603;28;20089;-77
2022/04/07 12:35:44;;;;;;;15.82;3.03;;;;;;;;;;5033622;28;20048;-79
2022/04/07 12:38:11;;;;;;;15.43;2.67;;;;;;;;;;5052677;28;20087;-77
2022/04/07 12:40:38;;;;;;;16.58;2.80;;;;;;;;;;5057027;28;20017;-77
2022/04/07 12:43:04;;;;;;;18.25;3.50;;;;;;;;;;5038570;28;20045;-76
2022/04/07 12:45:30;;;;;;;14.52;2.58;;;;;;;;;;5044062;28;20041;-78
2022/04/07 12:48:03;;;;;;;16.40;2.50;;;;;;;;;;5038640;28;20024;-78
2022/04/07 12:50:29;;;;;;;12.00;2.45;;;;;;;;;;5057114;28;20021;-76
2022/04/07 12:52:56;;;;;;;13.60;3.05;;;;;;;;;;5037255;28;20029;-76
2022/04/07 12:55:32;;;;;;;20.55;2.83;;;;;;;;;;5035346;28;20086;-77
2022/04/07 12:57:58;;;;;;;14.65;3.10;;;;;;;;;;5054025;28;20028;-79
2022/04/07 13:00:24;;;;;;;15.98;2.55;;;;;;;;;;5071717;28;20037;-77
2022/04/07 13:02:54;;;;;;;17.45;2.75;;;;;;;;;;5055519;28;20040;-76
2022/04/07 13:05:25;;;;;;;11.20;2.72;;;;;;;;;;5072551;28;20112;-77
2022/04/07 13:07:52;;;;;;;14.10;3.38;;;;;;;;;;5073796;28;20447;-76
2022/04/07 13:10:18;;;;;;;14.93;2.67;;;;;;;;;;5069486;28;20063;-77
2022/04/07 13:12:44;;;;;;;29.42;2.83;;;;;;;;;;5058243;28;20029;-76
2022/04/07 13:15:11;;;;;;;20.45;3.55;;;;;;;;;;5058495;28;20456;-76
2022/04/07 13:17:37;;;;;;;15.13;2.60;;;;;;;;;;5057343;28;20043;-76
2022/04/07 13:20:04;;;;;;;19.17;3.30;;;;;;;;;;5042238;28;20394;-77
2022/04/07 13:22:31;;;;;;;14.75;3.85;;;;;;;;;;5039645;28;20044;-77
2022/04/07 13:24:57;;;;;;;15.73;2.97;;;;;;;;;;5057732;28;20029;-77
2022/04/07 13:27:23;;;;;;;23.20;2.83;;;;;;;;;;5040386;28;20162;-77
2022/04/07 13:29:49;;;;;;;26.67;3.75;;;;;;;;;;5058835;28;20078;-77
2022/04/07 13:32:15;;;;;;;19.10;3.13;;;;;;;;;;5058528;28;20397;-76
2022/04/07 13:34:41;;;;;;;17.17;3.80;;;;;;;;;;5050719;28;20021;-77
2022/04/07 13:37:07;;;;;;;16.02;2.65;;;;;;;;;;5055432;28;20048;-76
2022/04/07 13:39:34;;;;;;;18.90;2.83;;;;;;;;;;5051467;28;20060;-76
2022/04/07 13:42:00;;;;;;;12.55;2.78;;;;;;;;;;5098221;28;20473;-77
2022/04/07 13:44:26;;;;;;;11.18;2.33;;;;;;;;;;5098483;28;20032;-77
2022/04/07 13:46:52;;;;;;;14.63;2.15;;;;;;;;;;5044883;28;20036;-77
2022/04/07 13:49:18;;;;;;;12.30;2.45;;;;;;;;;;5044561;28;20033;-79
2022/04/07 13:51:45;;;;;;;14.23;2.72;;;;;;;;;;5060151;28;20127;-79
2022/04/07 13:54:11;;;;;;;12.05;2.30;;;;;;;;;;5058590;28;20457;-78
2022/04/07 13:56:37;;;;;;;14.98;2.20;;;;;;;;;;5063032;28;20619;-78
2022/04/07 13:59:04;;;;;;;11.73;2.70;;;;;;;;;;5046213;28;20027;-78
2022/04/07 14:01:34;;;;;;;12.38;2.10;;;;;;;;;;5063925;28;20064;-77
2022/04/07 14:04:00;;;;;;;12.85;2.42;;;;;;;;;;5064026;28;20021;-79
2022/04/07 14:06:26;;;;;;;12.02;2.38;;;;;;;;;;5049910;28;20055;-79
2022/04/07 14:08:52;;;;;;;11.52;2.63;;;;;;;;;;5059427;28;20047;-79
2022/04/07 14:11:19;;;;;;;21.05;3.00;;;;;;;;;;5064401;28;20119;-78
2022/04/07 14:13:45;;;;;;;11.18;2.33;;;;;;;;;;5061284;28;20519;-78
2022/04/07 14:16:11;;;;;;;12.20;1.88;;;;;;;;;;5065413;28;20044;-78
2022/04/07 14:18:37;;;;;;;17.30;3.00;;;;;;;;;;5062270;28;20025;-78
2022/04/07 14:21:04;;;;;;;11.27;1.85;;;;;;;;;;5065503;28;20028;-78
2022/04/07 14:23:30;;;;;;;10.63;1.75;;;;;;;;;;5062123;28;20028;-79
2022/04/07 14:25:56;;;;;;;9.55;1.73;;;;;;;;;;5043612;28;20281;-79
2022/04/07 14:28:22;;;;;;;11.80;2.10;;;;;;;;;;5050313;28;20564;-77
2022/04/07 14:30:51;;;;;;;16.27;2.65;;;;;;;;;;5062183;28;20059;-76